createdAt,value
2023-05-13T00:03:28.257Z,5.70
2023-05-13T00:13:32.202Z,5.70
2023-05-13T00:23:35.676Z,6.00
2023-05-13T00:33:42.786Z,6.40
2023-05-13T00:43:46.422Z,5.90
2023-05-13T00:53:50.650Z,5.00
2023-05-13T01:04:01.429Z,5.90
2023-05-13T01:14:18.549Z,6.10
2023-05-13T01:24:22.492Z,5.30
2023-05-13T01:34:27.742Z,5.50
2023-05-13T01:44:31.681Z,5.70
2023-05-13T01:54:35.577Z,7.20
2023-05-13T02:04:39.171Z,7.10
2023-05-13T02:14:43.276Z,6.60
2023-05-13T02:24:47.453Z,6.00
2023-05-13T02:34:51.435Z,6.70
2023-05-13T02:44:55.258Z,5.80
2023-05-13T02:54:58.877Z,5.50
2023-05-13T03:05:03.364Z,7.40
2023-05-13T03:15:08.807Z,6.60
2023-05-13T03:25:16.150Z,6.00
2023-05-13T03:35:19.791Z,6.70
2023-05-13T03:55:26.281Z,6.20
2023-05-13T04:05:29.599Z,6.20
2023-05-13T04:15:36.708Z,6.00
2023-05-13T04:25:41.876Z,5.90
2023-05-13T04:35:45.810Z,6.60
2023-05-13T04:45:49.737Z,6.10
2023-05-13T04:55:56.765Z,8.00
2023-05-13T05:06:03.759Z,7.10
2023-05-13T05:16:08.333Z,8.10
2023-05-13T05:26:12.559Z,6.80
2023-05-13T05:36:17.202Z,6.60
2023-05-13T05:46:20.964Z,7.10
2023-05-13T05:56:24.786Z,6.20
2023-05-13T06:06:29.018Z,7.70
2023-05-13T06:16:32.774Z,6.10
2023-05-13T06:26:35.778Z,5.50
2023-05-13T06:36:39.743Z,4.50
2023-05-13T06:46:43.383Z,4.70
2023-05-13T06:56:47.054Z,4.10
2023-05-13T07:06:50.316Z,3.90
2023-05-13T07:16:54.256Z,3.90
2023-05-13T07:26:58.326Z,3.70
2023-05-13T07:37:03.415Z,3.40
2023-05-13T07:47:10.888Z,3.90
2023-05-13T07:57:14.647Z,3.70
2023-05-13T08:07:18.053Z,4.80
2023-05-13T08:17:22.185Z,3.40
2023-05-13T08:27:29.993Z,3.00
2023-05-13T08:37:33.660Z,2.70
2023-05-13T08:47:40.200Z,2.30
2023-05-13T08:57:43.412Z,2.30
2023-05-13T09:07:47.074Z,2.20
2023-05-13T09:17:52.737Z,2.80
2023-05-13T09:27:58.450Z,3.30
2023-05-13T09:38:01.951Z,3.10
2023-05-13T09:48:08.066Z,2.80
2023-05-13T09:58:11.330Z,2.80
2023-05-13T10:08:15.663Z,2.50
2023-05-13T10:18:20.676Z,2.90
2023-05-13T10:28:25.962Z,2.30
2023-05-13T10:38:53.590Z,2.40
2023-05-13T10:48:59.774Z,3.40
2023-05-13T10:59:05.889Z,3.20
2023-05-13T11:09:13.602Z,2.70
2023-05-13T11:19:21.022Z,4.80
2023-05-13T11:29:30.096Z,2.50
2023-05-13T11:39:34.813Z,2.40
2023-05-13T11:49:38.222Z,2.80
2023-05-13T11:59:48.180Z,3.00
2023-05-13T12:09:53.471Z,2.60
2023-05-13T12:20:10.169Z,3.00
2023-05-13T12:30:14.812Z,3.30
2023-05-13T12:40:17.578Z,3.70
2023-05-13T12:50:25.784Z,2.90
2023-05-13T13:10:33.024Z,3.00
2023-05-13T13:20:37.268Z,3.00
2023-05-13T13:30:41.081Z,3.40
2023-05-13T13:40:44.673Z,2.50
2023-05-13T13:50:49.383Z,2.70
2023-05-13T14:00:54.443Z,2.60
2023-05-13T14:10:58.305Z,2.80
2023-05-13T14:21:05.494Z,2.30
2023-05-13T14:31:12.874Z,2.00
2023-05-13T14:41:19.443Z,2.30
2023-05-13T14:51:23.243Z,2.40
2023-05-13T15:01:31.298Z,2.80
2023-05-13T15:21:43.616Z,2.40
2023-05-13T15:31:50.322Z,2.50
2023-05-13T15:41:53.984Z,2.10
2023-05-13T15:51:58.121Z,2.30
2023-05-13T16:02:01.928Z,3.00
2023-05-13T16:12:04.590Z,2.80
2023-05-13T16:22:26.331Z,2.60
2023-05-13T16:32:30.582Z,2.70
2023-05-13T16:42:37.836Z,2.60
2023-05-13T16:52:41.737Z,2.80
2023-05-13T17:02:45.585Z,2.10
2023-05-13T17:12:49.632Z,2.70
2023-05-13T17:22:53.207Z,2.90
2023-05-13T17:32:56.793Z,2.80
2023-05-13T17:43:02.527Z,3.30
2023-05-13T17:53:06.511Z,3.40
2023-05-13T18:03:10.143Z,3.80
2023-05-13T18:13:17.834Z,4.70
2023-05-13T18:23:21.368Z,3.40
2023-05-13T18:33:25.038Z,5.60
2023-05-13T18:43:28.500Z,6.00
2023-05-13T18:53:32.192Z,6.30
2023-05-13T19:03:36.603Z,6.10
2023-05-13T19:23:50.531Z,11.50
2023-05-13T19:33:54.514Z,14.20
2023-05-13T19:43:58.470Z,12.00
2023-05-13T19:54:02.482Z,11.30
2023-05-13T20:04:09.474Z,11.00
2023-05-13T20:14:22.463Z,14.30
2023-05-13T20:24:25.991Z,13.60
2023-05-13T20:34:30.195Z,14.80
2023-05-13T20:44:34.065Z,15.10
2023-05-13T20:54:38.033Z,13.10
2023-05-13T21:04:41.603Z,14.00
2023-05-13T21:14:45.559Z,14.90
2023-05-13T21:24:49.993Z,14.00
2023-05-13T21:34:56.821Z,15.10
2023-05-13T21:45:04.493Z,13.70
2023-05-13T21:55:09.640Z,13.10
2023-05-13T22:05:12.761Z,11.20
2023-05-13T22:15:20.476Z,12.80
2023-05-13T22:25:33.533Z,13.90
2023-05-13T22:35:39.272Z,13.40
2023-05-13T22:45:43.094Z,14.30
2023-05-13T22:55:46.699Z,14.30
2023-05-13T23:05:51.028Z,13.20
2023-05-13T23:15:54.820Z,13.00
2023-05-13T23:25:58.533Z,13.60
2023-05-13T23:36:02.138Z,15.30
2023-05-13T23:46:05.932Z,15.80
2023-05-13T23:56:12.093Z,15.40
